Time;durP1;ratioP1;P1;durP2;ratioP2;P2;SDS_P1;SDS_P2;PMS_P1;PMS_P2;Temp;Humidity;BMP_temperature;BMP_pressure;BME280_temperature;BME280_humidity;BME280_pressure;Samples;Min_cycle;Max_cycle;Signal;HPM_P1;HPM_P2
2023/01/28 00:01:45;;;;;;;14.77;4.82;;;;;;;1.04;68.32;102537.97;4983943;28;20049;-61
2023/01/28 00:04:10;;;;;;;11.15;4.25;;;;;;;1.08;68.28;102541.44;4975257;28;20062;-60
2023/01/28 00:06:37;;;;;;;13.10;4.63;;;;;;;1.07;67.59;102544.91;4986111;28;20452;-59
2023/01/28 00:09:02;;;;;;;13.05;4.28;;;;;;;1.10;68.28;102541.44;4981615;28;20049;-58
2023/01/28 00:11:28;;;;;;;9.00;3.72;;;;;;;1.14;68.21;102545.81;4983839;28;20418;-62
2023/01/28 00:13:54;;;;;;;12.50;4.32;;;;;;;1.14;67.86;102541.50;4983785;28;20030;-59
2023/01/28 00:16:21;;;;;;;9.25;3.25;;;;;;;1.18;67.79;102535.50;4984510;28;20401;-58
2023/01/28 00:18:47;;;;;;;10.90;3.15;;;;;;;1.17;66.73;102531.16;4989009;28;20026;-55
2023/01/28 00:21:14;;;;;;;6.47;3.78;;;;;;;1.17;67.40;102533.75;4989733;28;20402;-60
2023/01/28 00:23:41;;;;;;;12.20;3.88;;;;;;;1.21;67.50;102532.94;4983522;28;20038;-56
2023/01/28 00:26:12;;;;;;;6.32;3.03;;;;;;;1.23;67.75;102539.88;4993437;28;20018;-59
2023/01/28 00:28:38;;;;;;;6.60;3.40;;;;;;;1.24;67.21;102534.69;4987580;28;20015;-56
2023/01/28 00:31:08;;;;;;;8.23;3.80;;;;;;;1.26;66.96;102539.91;4988308;28;20053;-62
2023/01/28 00:33:34;;;;;;;7.78;2.72;;;;;;;1.26;66.99;102543.34;4986449;28;20035;-59
2023/01/28 00:36:00;;;;;;;8.65;3.17;;;;;;;1.27;66.86;102541.66;4992279;28;20025;-59
2023/01/28 00:38:27;;;;;;;13.25;3.88;;;;;;;1.27;66.86;102546.84;4994736;28;20037;-58
2023/01/28 00:40:53;;;;;;;13.27;3.63;;;;;;;1.28;66.74;102545.97;4989706;28;20046;-59
2023/01/28 00:43:19;;;;;;;7.55;3.10;;;;;;;1.27;66.58;102544.25;4988823;28;20042;-59
2023/01/28 00:45:45;;;;;;;7.95;3.58;;;;;;;1.26;66.67;102542.50;4989904;28;20029;-59
2023/01/28 00:48:10;;;;;;;7.70;2.15;;;;;;;1.23;65.60;102542.47;4998668;28;20026;-60
2023/01/28 00:50:36;;;;;;;3.55;2.00;;;;;;;1.24;65.92;102541.63;4993034;28;20034;-56
2023/01/28 00:53:02;;;;;;;3.40;1.50;;;;;;;1.29;65.96;102537.31;4989234;28;20113;-59
2023/01/28 00:55:27;;;;;;;5.80;1.70;;;;;;;1.33;65.59;102539.09;4986935;28;20043;-57
2023/01/28 00:57:53;;;;;;;7.93;2.08;;;;;;;1.35;65.60;102540.00;4988228;28;20069;-58
2023/01/28 01:00:24;;;;;;;8.98;2.75;;;;;;;1.38;65.54;102537.44;4993325;28;20490;-61
2023/01/28 01:02:50;;;;;;;5.28;2.20;;;;;;;1.40;65.69;102529.66;4987298;28;20030;-60
2023/01/28 01:05:16;;;;;;;6.00;2.25;;;;;;;1.39;65.80;102528.78;4993299;28;20073;-60
2023/01/28 01:07:42;;;;;;;4.90;2.22;;;;;;;1.37;65.73;102531.34;4984128;28;20541;-60
2023/01/28 01:10:10;;;;;;;6.28;2.42;;;;;;;1.42;65.51;102527.94;4985462;28;20034;-60
2023/01/28 01:12:36;;;;;;;5.07;2.72;;;;;;;1.42;65.40;102528.84;4990933;28;20041;-58
2023/01/28 01:15:03;;;;;;;6.63;2.47;;;;;;;1.42;65.91;102534.03;4985938;28;20030;-59
2023/01/28 01:17:30;;;;;;;3.30;2.15;;;;;;;1.45;65.76;102538.34;4991738;28;20425;-59
2023/01/28 01:19:56;;;;;;;6.03;2.72;;;;;;;1.45;65.40;102531.44;4987766;28;20062;-57
2023/01/28 01:22:21;;;;;;;5.32;2.38;;;;;;;1.44;65.39;102534.88;4989076;28;20054;-60
2023/01/28 01:24:47;;;;;;;4.05;1.23;;;;;;;1.43;65.41;102532.28;4993027;28;20041;-59
2023/01/28 01:27:13;;;;;;;5.10;1.50;;;;;;;1.41;65.57;102542.66;4988154;28;20057;-59
2023/01/28 01:29:38;;;;;;;5.35;1.92;;;;;;;1.41;65.13;102537.47;4990627;28;20022;-57
2023/01/28 01:32:04;;;;;;;1.65;0.90;;;;;;;1.41;64.21;102542.66;4990429;28;20131;-58
2023/01/28 01:34:29;;;;;;;3.88;0.98;;;;;;;1.39;63.86;102549.53;4993144;28;20109;-58
2023/01/28 01:36:55;;;;;;;5.10;1.50;;;;;;;1.41;64.03;102545.25;4996388;28;20033;-60
2023/01/28 01:39:20;;;;;;;3.72;1.30;;;;;;;1.40;63.46;102540.91;4990872;28;20498;-57
2023/01/28 01:41:46;;;;;;;5.50;1.10;;;;;;;1.40;63.74;102540.03;4990146;28;20068;-60
2023/01/28 01:44:53;;;;;;;3.40;1.25;;;;;;;1.39;63.39;102540.88;4989915;28;20194;-60
2023/01/28 01:47:22;;;;;;;5.50;1.70;;;;;;;1.41;64.22;102542.66;4993339;28;20025;-61
2023/01/28 01:49:48;;;;;;;3.05;1.38;;;;;;;1.42;63.60;102533.13;4989245;28;20257;-62
2023/01/28 01:52:20;;;;;;;4.55;1.52;;;;;;;1.45;63.92;102533.16;4982077;28;20553;-58
2023/01/28 01:54:48;;;;;;;;;;;;;;;1.42;63.06;102533.13;4988190;28;20113;-62
2023/01/28 01:57:20;;;;;;;4.25;1.50;;;;;;;1.45;64.10;102527.97;4989757;28;19972;-58
2023/01/28 01:59:46;;;;;;;3.30;1.13;;;;;;;1.45;63.72;102538.34;4989321;28;20109;-56
2023/01/28 02:02:12;;;;;;;2.10;1.40;;;;;;;1.48;64.02;102540.97;4985934;28;20026;-59
2023/01/28 02:04:41;;;;;;;4.38;1.50;;;;;;;1.54;64.44;102542.75;4985069;28;20081;-61
2023/01/28 02:07:09;;;;;;;3.95;1.83;;;;;;;1.54;63.99;102548.81;4988406;28;20409;-56
2023/01/28 02:09:37;;;;;;;2.78;1.55;;;;;;;1.56;63.83;102546.25;4993293;28;20109;-55
2023/01/28 02:12:07;;;;;;;3.17;1.80;;;;;;;1.57;63.78;102540.19;4989481;28;20030;-59
2023/01/28 02:14:38;;;;;;;1.88;1.10;;;;;;;1.54;63.87;102547.94;4985767;28;20026;-60
2023/01/28 02:17:04;;;;;;;3.30;1.55;;;;;;;1.54;63.71;102542.75;4987829;28;20560;-58
2023/01/28 02:20:12;;;;;;;5.32;1.65;;;;;;;1.47;63.44;102534.06;4986984;28;20042;-56
2023/01/28 02:23:35;;;;;;;5.97;1.45;;;;;;;1.49;63.32;102534.94;4986098;28;20074;-56
2023/01/28 02:26:11;;;;;;;2.60;1.27;;;;;;;1.51;64.29;102541.00;4925263;29;20043;-60
2023/01/28 02:28:39;;;;;;;3.05;1.65;;;;;;;1.56;64.18;102538.47;4925850;29;20067;-57
2023/01/28 02:31:15;;;;;;;3.28;1.45;;;;;;;1.56;63.93;102535.88;4968282;28;20364;-60
2023/01/28 02:34:02;;;;;;;3.28;1.38;;;;;;;1.50;63.74;102532.34;4991236;28;20056;-59
2023/01/28 02:37:06;;;;;;;6.95;2.17;;;;;;;1.52;63.22;102534.94;4987653;28;20069;-60
2023/01/28 02:39:39;;;;;;;4.72;1.50;;;;;;;1.55;63.64;102534.13;4987003;28;20026;-60
2023/01/28 02:42:09;;;;;;;3.72;1.20;;;;;;;1.59;63.74;102543.69;4977187;28;20042;-59
2023/01/28 02:44:35;;;;;;;5.80;1.08;;;;;;;1.57;63.27;102542.78;4983273;28;20026;-62
2023/01/28 02:49:52;;;;;;;3.58;1.40;;;;;;;1.54;63.67;102545.34;4985642;28;20054;-57
2023/01/28 02:55:33;;;;;;;4.90;1.63;;;;;;;1.52;63.96;102535.81;4989441;28;20112;-62
2023/01/28 02:58:20;;;;;;;5.85;1.75;;;;;;;1.49;63.18;102540.97;4984976;28;20026;-59
2023/01/28 03:00:49;;;;;;;9.30;1.80;;;;;;;1.48;63.59;102539.25;4990288;28;20034;-60
2023/01/28 03:03:25;;;;;;;4.95;1.50;;;;;;;1.48;63.78;102536.66;4989894;28;20033;-60
2023/01/28 03:06:05;;;;;;;5.28;1.50;;;;;;;1.50;64.07;102536.69;4988009;28;20029;-62
2023/01/28 03:39:15;;;;;;;3.55;2.10;;;;;;;1.55;63.56;102534.13;4989531;28;20072;-59
2023/01/28 03:41:41;;;;;;;5.25;1.92;;;;;;;1.58;63.70;102531.56;5006763;28;20034;-63
2023/01/28 03:46:50;;;;;;;4.47;1.98;;;;;;;1.57;63.87;102532.41;4990261;28;20041;-56
2023/01/28 03:49:16;;;;;;;5.45;1.80;;;;;;;1.58;63.35;102529.81;4986925;28;20030;-61
2023/01/28 03:51:43;;;;;;;2.88;1.80;;;;;;;1.54;62.72;102537.56;4985385;28;20054;-61
2023/01/28 03:54:08;;;;;;;4.10;2.30;;;;;;;1.55;63.50;102537.56;4985867;28;20033;-61
2023/01/28 03:56:39;;;;;;;7.53;2.40;;;;;;;1.58;63.41;102539.34;4986514;28;20044;-59
2023/01/28 03:59:06;;;;;;;5.85;2.28;;;;;;;1.61;63.55;102534.16;4992910;28;20130;-59
2023/01/28 04:01:31;;;;;;;3.65;2.03;;;;;;;1.60;63.55;102532.41;4986344;28;20048;-57
2023/01/28 04:03:57;;;;;;;5.55;2.00;;;;;;;1.60;63.43;102537.59;4988249;28;20393;-55
2023/01/28 04:06:22;;;;;;;14.90;2.58;;;;;;;1.60;63.17;102528.13;4976391;28;20043;-59
2023/01/28 04:08:51;;;;;;;4.25;1.95;;;;;;;1.61;63.68;102529.84;4989635;28;20034;-58
2023/01/28 04:11:20;;;;;;;4.93;1.85;;;;;;;1.61;63.60;102539.34;4982744;28;20034;-58
2023/01/28 04:13:47;;;;;;;6.82;2.00;;;;;;;1.62;63.35;102534.19;4992268;28;20038;-57
2023/01/28 04:16:15;;;;;;;5.22;1.88;;;;;;;1.65;63.34;102534.22;4984179;28;20040;-59
2023/01/28 04:18:41;;;;;;;5.55;2.08;;;;;;;1.65;62.98;102538.53;4992006;28;20034;-62
2023/01/28 04:21:06;;;;;;;4.25;2.13;;;;;;;1.66;63.18;102535.94;4986988;28;20061;-59
2023/01/28 04:23:32;;;;;;;8.43;2.05;;;;;;;1.65;63.20;102531.63;4983308;28;20097;-57
2023/01/28 04:25:57;;;;;;;3.33;1.35;;;;;;;1.65;63.13;102541.13;4986140;28;20030;-59
2023/01/28 04:28:23;;;;;;;4.60;1.83;;;;;;;1.64;63.23;102544.56;4986631;28;20034;-60
2023/01/28 04:30:48;;;;;;;7.53;2.05;;;;;;;1.61;63.05;102536.75;4983389;28;20117;-58
2023/01/28 04:33:14;;;;;;;3.58;1.55;;;;;;;1.64;63.36;102542.88;4991521;28;20030;-58
2023/01/28 04:35:40;;;;;;;6.45;2.30;;;;;;;1.67;63.22;102534.22;4991455;28;20201;-59
2023/01/28 04:38:05;;;;;;;7.30;2.15;;;;;;;1.70;63.24;102530.78;4988593;28;20030;-58
2023/01/28 04:40:31;;;;;;;6.00;2.13;;;;;;;1.73;63.00;102539.47;4979064;28;20041;-56
2023/01/28 04:42:57;;;;;;;5.75;2.15;;;;;;;1.74;62.95;102540.34;4991633;28;20042;-57
2023/01/28 04:45:23;;;;;;;4.30;2.42;;;;;;;1.77;63.18;102541.22;4992915;28;20031;-59
2023/01/28 04:47:48;;;;;;;6.00;2.60;;;;;;;1.79;62.79;102542.09;4988843;28;20533;-59
2023/01/28 04:50:14;;;;;;;5.95;2.33;;;;;;;1.82;63.11;102538.66;4990400;28;20045;-61
2023/01/28 04:52:40;;;;;;;4.13;2.15;;;;;;;1.78;62.81;102535.16;4981211;28;20049;-62
2023/01/28 04:55:07;;;;;;;5.60;1.80;;;;;;;1.76;62.74;102536.88;4983364;28;20057;-61
2023/01/28 04:57:32;;;;;;;5.60;2.50;;;;;;;1.74;62.88;102538.59;4991540;28;20037;-57
2023/01/28 04:59:58;;;;;;;7.80;1.92;;;;;;;1.73;62.34;102534.28;4991295;28;20030;-57
2023/01/28 05:02:23;;;;;;;6.13;1.92;;;;;;;1.74;62.45;102530.81;4984367;28;20482;-59
2023/01/28 05:04:49;;;;;;;4.82;2.25;;;;;;;1.71;62.48;102530.81;4993389;28;20106;-60
2023/01/28 05:07:14;;;;;;;8.57;2.72;;;;;;;1.71;62.82;102530.81;4993953;28;20136;-57
2023/01/28 05:09:39;;;;;;;5.35;2.40;;;;;;;1.71;62.58;102535.09;4992485;28;20019;-59
2023/01/28 05:12:05;;;;;;;6.78;2.47;;;;;;;1.70;62.52;102531.66;4988543;28;20122;-60
2023/01/28 05:14:31;;;;;;;5.18;1.95;;;;;;;1.70;62.32;102534.25;4989679;28;20026;-58
2023/01/28 05:16:56;;;;;;;4.90;2.40;;;;;;;1.68;62.09;102535.97;4990666;28;20081;-59
2023/01/28 05:19:22;;;;;;;7.90;2.55;;;;;;;1.68;62.13;102543.75;4983761;28;20046;-59
2023/01/28 05:21:47;;;;;;;7.00;2.58;;;;;;;1.69;62.02;102542.91;4985670;28;20022;-58
2023/01/28 05:24:13;;;;;;;13.50;3.55;;;;;;;1.68;62.33;102542.00;4986332;28;20471;-60
2023/01/28 05:26:38;;;;;;;7.78;3.30;;;;;;;1.72;62.25;102539.44;4993069;28;20042;-58
2023/01/28 05:29:04;;;;;;;13.02;4.82;;;;;;;1.71;61.62;102537.69;4992779;28;20113;-59
2023/01/28 05:31:29;;;;;;;9.30;4.03;;;;;;;1.71;61.52;102535.09;4989149;28;20080;-59
2023/01/28 05:33:55;;;;;;;13.60;5.07;;;;;;;1.71;61.92;102535.09;4990079;28;20506;-56
2023/01/28 05:36:20;;;;;;;45.97;18.98;;;;;;;1.71;61.96;102538.59;4989740;28;20113;-56
2023/01/28 05:38:46;;;;;;;17.00;7.65;;;;;;;1.71;61.65;102538.59;4987801;28;20042;-59
2023/01/28 05:41:11;;;;;;;16.00;6.22;;;;;;;1.74;62.05;102546.38;4988728;28;20038;-59
2023/01/28 05:43:37;;;;;;;10.85;5.38;;;;;;;1.74;61.77;102543.78;4993899;28;20034;-56
2023/01/28 05:46:02;;;;;;;17.33;5.97;;;;;;;1.72;61.62;102542.94;4991382;28;20031;-58
2023/01/28 05:48:28;;;;;;;14.23;5.85;;;;;;;1.75;61.85;102548.13;4989052;28;20045;-60
2023/01/28 05:50:53;;;;;;;25.33;10.57;;;;;;;1.74;62.17;102543.78;4986778;28;20072;-62
2023/01/28 05:53:19;;;;;;;16.38;7.53;;;;;;;1.78;61.87;102542.97;4983497;28;20038;-58
2023/01/28 05:55:50;;;;;;;17.40;8.02;;;;;;;1.78;61.49;102536.91;4982087;28;20084;-58
2023/01/28 05:58:16;;;;;;;19.17;7.82;;;;;;;1.77;61.32;102527.38;4985605;28;20069;-56
2023/01/28 06:00:42;;;;;;;18.17;8.35;;;;;;;1.77;61.70;102541.22;4993527;28;20116;-58
2023/01/28 06:03:07;;;;;;;22.02;9.43;;;;;;;1.81;61.73;102532.59;4986488;28;20117;-59
2023/01/28 06:05:33;;;;;;;24.23;10.43;;;;;;;1.82;61.88;102529.16;4985973;28;20045;-59
2023/01/28 06:07:58;;;;;;;19.23;7.95;;;;;;;1.82;61.85;102530.88;4989222;28;20113;-59
2023/01/28 06:10:23;;;;;;;18.48;10.05;;;;;;;1.82;61.73;102543.84;4988749;28;20054;-60
2023/01/28 06:12:49;;;;;;;17.55;7.20;;;;;;;1.82;61.75;102539.53;4988490;28;20057;-57
2023/01/28 06:15:14;;;;;;;18.20;7.75;;;;;;;1.80;61.88;102535.19;4983943;28;20410;-62
2023/01/28 06:17:40;;;;;;;21.45;7.97;;;;;;;1.81;62.06;102532.59;4979797;28;20041;-59
2023/01/28 06:20:07;;;;;;;18.63;8.20;;;;;;;1.87;62.30;102543.91;4987624;28;20023;-62
2023/01/28 06:22:33;;;;;;;20.90;8.50;;;;;;;1.87;62.40;102539.56;4984343;28;20034;-64
2023/01/28 06:24:58;;;;;;;19.23;8.35;;;;;;;1.89;62.38;102535.25;4990165;28;20113;-59
2023/01/28 06:27:24;;;;;;;19.23;7.43;;;;;;;1.92;62.69;102544.78;4993764;28;20019;-59
2023/01/28 06:29:49;;;;;;;19.17;6.70;;;;;;;1.93;62.53;102546.53;4993067;28;20093;-64
2023/01/28 06:32:15;;;;;;;16.75;6.65;;;;;;;1.86;62.82;102552.53;4985232;28;20117;-61
2023/01/28 06:34:40;;;;;;;13.27;5.70;;;;;;;1.80;63.25;102545.59;4991038;28;20042;-60
2023/01/28 06:37:06;;;;;;;12.52;5.00;;;;;;;1.79;63.39;102549.88;4985927;28;20533;-59
2023/01/28 06:39:32;;;;;;;15.45;6.13;;;;;;;1.77;63.29;102543.81;4987671;28;20402;-62
2023/01/28 06:41:57;;;;;;;19.55;6.80;;;;;;;1.76;63.08;102549.00;4986318;28;20033;-62
2023/01/28 06:44:23;;;;;;;15.48;6.20;;;;;;;1.78;63.07;102549.88;4986368;28;20030;-59
2023/01/28 06:46:49;;;;;;;18.85;6.90;;;;;;;1.82;63.07;102538.66;4992904;28;20026;-59
2023/01/28 06:49:14;;;;;;;18.48;6.63;;;;;;;1.82;63.41;102539.53;4990222;28;20097;-56
2023/01/28 06:51:40;;;;;;;15.68;6.95;;;;;;;1.83;63.51;102546.47;4993384;28;20065;-62
2023/01/28 06:54:05;;;;;;;21.88;8.60;;;;;;;1.87;63.44;102546.50;4980092;28;20053;-59
2023/01/28 06:56:31;;;;;;;19.70;7.15;;;;;;;1.89;63.38;102544.78;4984247;28;20486;-59
2023/01/28 06:58:57;;;;;;;12.40;6.47;;;;;;;1.90;63.52;102552.56;4987777;28;20054;-64
2023/01/28 07:01:22;;;;;;;18.98;7.93;;;;;;;1.87;63.56;102552.53;4978956;28;20113;-62
2023/01/28 07:03:47;;;;;;;15.55;7.07;;;;;;;1.88;63.41;102556.03;4990658;28;20034;-59
2023/01/28 07:06:13;;;;;;;19.23;6.35;;;;;;;1.86;63.72;102555.16;4988287;28;20053;-59
2023/01/28 07:08:40;;;;;;;14.02;6.00;;;;;;;1.82;63.55;102557.72;4989403;28;20030;-59
2023/01/28 07:11:06;;;;;;;15.23;5.53;;;;;;;1.86;63.59;102550.81;4986635;28;20385;-58
2023/01/28 07:13:32;;;;;;;15.55;6.07;;;;;;;1.89;63.58;102560.38;4984763;28;20030;-59
2023/01/28 07:15:57;;;;;;;17.25;6.82;;;;;;;1.93;63.49;102557.81;4985827;28;20085;-59
2023/01/28 07:18:23;;;;;;;16.65;6.68;;;;;;;1.96;63.16;102562.13;4985279;28;20054;-57
2023/01/28 07:20:48;;;;;;;15.95;7.07;;;;;;;1.94;63.35;102554.34;4985647;28;20030;-62
2023/01/28 07:23:14;;;;;;;17.75;7.38;;;;;;;1.93;63.22;102546.53;4982989;28;20041;-62
2023/01/28 07:25:40;;;;;;;17.08;6.65;;;;;;;1.93;63.25;102554.31;4990598;28;20108;-60
2023/01/28 07:28:05;;;;;;;11.40;4.88;;;;;;;1.99;62.83;102551.78;4980069;28;20545;-58
2023/01/28 07:30:31;;;;;;;11.43;5.15;;;;;;;2.05;62.71;102550.94;4984022;28;20028;-60
2023/01/28 07:32:58;;;;;;;10.02;4.68;;;;;;;2.05;62.83;102557.00;4968287;28;20046;-55
2023/01/28 07:35:24;;;;;;;15.93;5.72;;;;;;;2.06;62.93;102550.94;4980087;28;20108;-61
2023/01/28 07:37:58;;;;;;;15.85;6.72;;;;;;;2.08;62.92;102551.81;4968082;28;20027;-60
2023/01/28 07:40:25;;;;;;;14.30;5.75;;;;;;;2.07;63.59;102559.63;4982312;28;20037;-61
2023/01/28 07:42:51;;;;;;;19.08;8.38;;;;;;;2.01;63.97;102555.25;4979859;28;20117;-60
2023/01/28 07:45:17;;;;;;;17.17;7.50;;;;;;;1.98;64.34;102568.22;4982685;28;20042;-56
2023/01/28 07:47:42;;;;;;;15.98;7.75;;;;;;;1.94;64.68;102563.84;4983660;28;20050;-59
2023/01/28 07:50:10;;;;;;;13.88;6.90;;;;;;;1.91;64.91;102566.41;4981006;28;20080;-62
2023/01/28 07:52:43;;;;;;;14.65;6.60;;;;;;;1.88;65.15;102567.25;4985270;28;20025;-59
2023/01/28 07:55:11;;;;;;;13.95;6.18;;;;;;;1.91;65.27;102567.28;4975020;28;20035;-63
2023/01/28 07:57:37;;;;;;;14.77;6.55;;;;;;;1.92;65.45;102563.84;4972977;28;20053;-58
2023/01/28 08:00:03;;;;;;;17.88;8.27;;;;;;;1.92;65.86;102571.63;4979943;28;20034;-61
2023/01/28 08:02:29;;;;;;;21.80;10.43;;;;;;;1.95;65.83;102575.97;4981153;28;20145;-58
2023/01/28 08:04:57;;;;;;;21.42;10.52;;;;;;;1.96;66.00;102580.31;4986684;28;20149;-59
2023/01/28 08:07:23;;;;;;;18.50;7.18;;;;;;;1.96;65.97;102575.13;4972495;28;20168;-59
2023/01/28 08:09:50;;;;;;;8.20;4.28;;;;;;;1.93;66.45;102573.38;4983072;28;20426;-61
2023/01/28 08:12:16;;;;;;;13.88;6.35;;;;;;;1.96;65.95;102577.72;4970621;28;20093;-57
2023/01/28 08:14:41;;;;;;;13.90;6.07;;;;;;;1.95;66.67;102578.56;4978787;28;20034;-60
2023/01/28 08:17:07;;;;;;;16.35;5.78;;;;;;;2.00;65.84;102584.69;4983726;28;20038;-61
2023/01/28 08:19:42;;;;;;;18.02;6.50;;;;;;;2.01;65.88;102586.41;4982579;28;20138;-60
2023/01/28 08:22:07;;;;;;;14.27;6.05;;;;;;;2.06;65.52;102589.03;4980508;28;20081;-61
2023/01/28 08:24:33;;;;;;;15.88;5.90;;;;;;;2.11;65.25;102596.00;4984607;28;21183;-63
2023/01/28 08:26:58;;;;;;;11.50;5.43;;;;;;;2.13;65.14;102591.69;4973479;28;20038;-62
2023/01/28 08:29:24;;;;;;;12.20;5.38;;;;;;;2.17;65.04;102591.72;4978334;28;20034;-62
2023/01/28 08:31:49;;;;;;;11.45;4.78;;;;;;;2.18;65.20;102589.13;4981572;28;20579;-61
2023/01/28 08:34:14;;;;;;;13.40;6.00;;;;;;;2.22;65.30;102590.00;4986560;28;20034;-62
2023/01/28 08:36:40;;;;;;;15.20;5.55;;;;;;;2.26;65.25;102590.06;4986240;28;20065;-62
2023/01/28 08:39:05;;;;;;;13.20;4.10;;;;;;;2.33;65.11;102590.09;4986791;28;20149;-62
2023/01/28 08:41:31;;;;;;;11.13;4.30;;;;;;;2.37;64.43;102595.31;4976117;28;20034;-60
2023/01/28 08:43:57;;;;;;;9.98;5.15;;;;;;;2.37;64.69;102604.84;4974499;28;20061;-58
2023/01/28 08:46:23;;;;;;;13.45;5.38;;;;;;;2.39;64.73;102601.38;4986348;28;20406;-59
2023/01/28 08:48:52;;;;;;;16.30;4.47;;;;;;;2.42;64.43;102605.75;4992295;28;20034;-56
2023/01/28 08:51:17;;;;;;;9.55;4.22;;;;;;;2.46;64.63;102601.44;4987738;28;20053;-61
2023/01/28 08:53:43;;;;;;;8.82;4.28;;;;;;;2.49;64.43;102606.66;4987840;28;20042;-58
2023/01/28 08:56:08;;;;;;;17.77;7.13;;;;;;;2.50;64.50;102605.78;4983690;28;20949;-63
2023/01/28 08:58:34;;;;;;;9.15;2.55;;;;;;;2.50;63.75;102611.84;4987098;28;20379;-59
2023/01/28 09:01:08;;;;;;;5.88;2.20;;;;;;;2.53;63.07;102608.41;4987611;28;20022;-62
2023/01/28 09:03:34;;;;;;;5.15;2.78;;;;;;;2.54;62.01;102612.75;4989322;28;20046;-61
2023/01/28 09:06:03;;;;;;;2.75;1.95;;;;;;;2.55;61.56;102614.47;4988426;28;20045;-63
2023/01/28 09:08:29;;;;;;;6.65;2.53;;;;;;;2.55;61.30;102614.47;4981285;28;20496;-59
2023/01/28 09:10:58;;;;;;;6.80;1.45;;;;;;;2.54;60.79;102620.53;4988343;28;20034;-62
2023/01/28 09:13:27;;;;;;;9.55;3.67;;;;;;;2.58;61.54;102615.34;4978954;28;20061;-56
2023/01/28 09:15:53;;;;;;;6.55;2.13;;;;;;;2.64;61.38;102622.34;4977778;28;20092;-60
2023/01/28 09:18:19;;;;;;;6.78;2.47;;;;;;;2.67;60.92;102630.13;4986554;28;20498;-58
2023/01/28 09:20:45;;;;;;;5.13;1.63;;;;;;;2.63;60.68;102632.72;4985280;28;20505;-62
2023/01/28 09:23:11;;;;;;;4.55;1.90;;;;;;;2.66;60.39;102637.94;4989204;28;20030;-56
2023/01/28 09:25:36;;;;;;;5.22;1.90;;;;;;;2.71;60.63;102631.91;4970077;28;20046;-60
2023/01/28 09:28:03;;;;;;;4.38;2.03;;;;;;;2.77;60.01;102638.00;4986814;28;20534;-56
2023/01/28 09:30:29;;;;;;;9.15;2.70;;;;;;;2.77;60.23;102633.66;4984787;28;20508;-60
2023/01/28 09:32:56;;;;;;;6.90;2.78;;;;;;;2.81;59.90;102631.94;4981392;28;20038;-60
2023/01/28 09:35:22;;;;;;;6.22;2.78;;;;;;;2.83;59.83;102641.50;5006597;28;20041;-58
2023/01/28 09:37:48;;;;;;;7.32;3.10;;;;;;;2.86;60.01;102645.84;4984514;28;20034;-63
2023/01/28 09:40:28;;;;;;;5.22;2.22;;;;;;;2.88;59.78;102646.72;4990499;28;20026;-59
2023/01/28 09:43:18;;;;;;;3.40;1.67;;;;;;;2.89;59.76;102640.66;4979818;28;20105;-58
2023/01/28 09:45:49;;;;;;;4.90;1.45;;;;;;;2.93;59.88;102634.63;4991277;28;20026;-60
2023/01/28 09:48:21;;;;;;;4.60;1.17;;;;;;;2.91;60.09;102636.34;4982662;28;20385;-57
2023/01/28 09:50:53;;;;;;;5.10;1.13;;;;;;;2.92;60.37;102643.28;4992345;28;20135;-58
2023/01/28 09:53:30;;;;;;;4.28;1.15;;;;;;;2.90;60.35;102642.41;4993327;28;20046;-58
2023/01/28 09:56:00;;;;;;;2.08;0.88;;;;;;;2.92;60.52;102638.09;4994169;28;20026;-63
2023/01/28 09:58:26;;;;;;;3.55;1.65;;;;;;;2.98;60.39;102632.03;4997709;28;20022;-60
2023/01/28 10:01:16;;;;;;;4.43;1.55;;;;;;;2.99;60.14;102642.44;4991421;28;20080;-64
2023/01/28 10:04:06;;;;;;;2.67;1.02;;;;;;;3.00;60.45;102646.78;4986997;28;20030;-62
2023/01/28 10:07:01;;;;;;;1.17;0.57;;;;;;;3.05;60.07;102646.78;4992126;28;20483;-62
2023/01/28 10:09:52;;;;;;;1.27;0.68;;;;;;;3.07;60.17;102639.03;4986271;28;20039;-58
2023/01/28 10:12:59;;;;;;;1.73;0.57;;;;;;;3.07;60.03;102633.81;4984119;28;20116;-57
2023/01/28 10:15:40;;;;;;;3.25;0.80;;;;;;;3.10;59.82;102633.84;4985461;28;20062;-57
2023/01/28 10:18:09;;;;;;;4.72;1.02;;;;;;;3.07;59.90;102646.81;4975119;28;20113;-59
2023/01/28 10:20:48;;;;;;;2.25;0.55;;;;;;;3.03;59.92;102644.19;4984241;28;20030;-60
2023/01/28 10:23:20;;;;;;;1.77;0.50;;;;;;;3.05;59.72;102646.78;4976676;28;20023;-64
2023/01/28 10:25:49;;;;;;;2.55;0.68;;;;;;;3.04;59.82;102640.75;4985616;28;20049;-58
2023/01/28 10:28:27;;;;;;;2.60;0.40;;;;;;;3.07;59.88;102629.47;4983002;28;20085;-61
2023/01/28 10:30:53;;;;;;;1.60;0.65;;;;;;;3.10;60.00;102634.69;4987489;28;20062;-61
2023/01/28 10:33:32;;;;;;;0.98;0.30;;;;;;;3.09;59.53;102642.50;4984555;28;20030;-60
2023/01/28 10:35:57;;;;;;;2.00;0.68;;;;;;;3.08;60.09;102635.56;4989632;28;20026;-58
2023/01/28 10:38:25;;;;;;;0.73;0.50;;;;;;;3.08;60.05;102630.34;4987755;28;20458;-59
2023/01/28 10:40:51;;;;;;;0.88;0.50;;;;;;;3.09;60.08;102632.09;4990516;28;20034;-58
2023/01/28 10:43:22;;;;;;;3.67;0.80;;;;;;;3.11;60.19;102633.81;4993185;28;20914;-55
2023/01/28 10:46:25;;;;;;;13.38;5.80;;;;;;;3.15;60.12;102632.97;4992568;28;20038;-60
2023/01/28 10:49:08;;;;;;;2.30;1.00;;;;;;;3.16;60.07;102628.63;4990911;28;20479;-60
2023/01/28 10:51:40;;;;;;;1.20;0.57;;;;;;;3.16;60.38;102620.84;4990477;28;20048;-58
2023/01/28 10:54:17;;;;;;;1.95;0.60;;;;;;;3.16;60.09;102620.84;4981692;28;20069;-61
2023/01/28 10:57:04;;;;;;;1.48;0.73;;;;;;;3.16;59.87;102613.03;5000037;28;20038;-61
2023/01/28 10:59:33;;;;;;;2.35;0.70;;;;;;;3.13;60.28;102620.81;4972905;28;20050;-59
2023/01/28 11:02:02;;;;;;;1.95;0.40;;;;;;;3.15;59.95;102613.88;4979127;28;20060;-62
2023/01/28 11:05:03;;;;;;;2.00;0.85;;;;;;;3.14;59.49;102618.22;4965708;28;20042;-58
2023/01/28 11:07:29;;;;;;;1.50;0.77;;;;;;;3.15;59.98;102616.50;4995979;28;20062;-59
2023/01/28 11:09:54;;;;;;;1.10;0.50;;;;;;;3.14;60.15;102612.16;4981281;28;20437;-58
2023/01/28 11:12:26;;;;;;;0.88;0.38;;;;;;;3.12;60.27;102619.06;4982323;28;20030;-60
2023/01/28 11:14:59;;;;;;;1.38;0.40;;;;;;;3.09;60.55;102608.69;4985280;28;20038;-58
2023/01/28 11:17:28;;;;;;;4.15;0.55;;;;;;;3.07;60.58;102605.19;4980346;28;20132;-57
2023/01/28 11:19:57;;;;;;;1.33;0.40;;;;;;;3.05;60.79;102611.25;4972931;28;20552;-58
2023/01/28 11:22:43;;;;;;;1.70;0.65;;;;;;;3.06;60.55;102606.91;4984726;28;20058;-59
2023/01/28 11:25:14;;;;;;;3.13;0.60;;;;;;;3.09;60.69;102603.47;4972048;28;20058;-61
2023/01/28 11:27:45;;;;;;;1.88;0.57;;;;;;;3.10;60.72;102610.41;4984575;28;20026;-59
2023/01/28 11:30:25;;;;;;;3.80;0.52;;;;;;;3.11;60.53;102605.22;4984022;28;20033;-62
2023/01/28 11:33:03;;;;;;;2.72;0.40;;;;;;;3.15;60.71;102600.88;4969603;28;20083;-59
2023/01/28 11:35:30;;;;;;;0.40;0.22;;;;;;;3.10;60.26;102589.63;4974284;28;20405;-62
2023/01/28 11:37:59;;;;;;;3.53;1.35;;;;;;;3.07;60.33;102600.00;4980999;28;20030;-63
2023/01/28 11:40:26;;;;;;;2.35;0.70;;;;;;;3.05;60.33;102598.25;4991091;28;20479;-61
2023/01/28 11:42:56;;;;;;;1.55;0.52;;;;;;;3.05;60.48;102595.66;4986219;28;20057;-55
2023/01/28 11:45:29;;;;;;;0.63;0.32;;;;;;;3.07;60.39;102593.06;4988984;28;20042;-56
2023/01/28 11:48:23;;;;;;;2.50;0.45;;;;;;;3.07;60.58;102587.00;4988546;28;20506;-56
2023/01/28 11:51:36;;;;;;;0.80;0.35;;;;;;;3.02;60.57;102590.44;4985163;28;20108;-59
2023/01/28 11:54:38;;;;;;;0.77;0.50;;;;;;;2.99;60.57;102585.22;4962420;28;20053;-58
2023/01/28 11:57:10;;;;;;;1.97;0.50;;;;;;;2.93;60.59;102593.03;4993978;28;20505;-57
2023/01/28 11:59:49;;;;;;;3.30;0.40;;;;;;;2.88;60.55;102592.97;4988567;28;20037;-58
2023/01/28 12:02:20;;;;;;;1.85;0.70;;;;;;;2.87;60.63;102586.03;4984694;28;20034;-57
2023/01/28 12:05:04;;;;;;;2.03;0.50;;;;;;;2.89;60.44;102584.31;4991370;28;20621;-61
2023/01/28 12:07:40;;;;;;;3.22;1.17;;;;;;;2.92;60.54;102593.00;4989067;28;20121;-61
2023/01/28 12:10:18;;;;;;;4.53;2.15;;;;;;;2.94;60.87;102589.56;4986338;28;20030;-60
2023/01/28 12:13:12;;;;;;;1.65;0.45;;;;;;;2.98;60.85;102578.28;4983579;28;20040;-60
2023/01/28 12:16:09;;;;;;;2.65;1.20;;;;;;;3.02;60.79;102573.97;4983729;28;20050;-59
2023/01/28 12:18:53;;;;;;;3.97;1.30;;;;;;;3.02;60.94;102569.63;4989045;28;20045;-62
2023/01/28 12:21:43;;;;;;;1.98;0.80;;;;;;;3.02;60.64;102568.78;4960693;28;20038;-60
2023/01/28 12:24:46;;;;;;;1.92;0.77;;;;;;;2.99;60.25;102574.81;4985354;28;20080;-62